sensor_id;sensor_type;location;lat;lon;timestamp;pressure;altitude;pressure_sealevel;temperature;humidity
56807;BME280;42687;42.524;12.052;2022-08-21T00:01:58;96464.34;;;18.58;95.21
56807;BME280;42687;42.524;12.052;2022-08-21T00:04:23;96462.47;;;18.68;94.48
56807;BME280;42687;42.524;12.052;2022-08-21T00:06:49;96457.34;;;18.85;93.47
56807;BME280;42687;42.524;12.052;2022-08-21T00:09:15;96467.81;;;18.96;92.28
56807;BME280;42687;42.524;12.052;2022-08-21T00:11:41;96462.31;;;19.08;91.09
56807;BME280;42687;42.524;12.052;2022-08-21T00:14:07;96459.28;;;19.21;89.88
56807;BME280;42687;42.524;12.052;2022-08-21T00:16:34;96461.78;;;19.22;88.52
56807;BME280;42687;42.524;12.052;2022-08-21T00:19:00;96455.25;;;19.34;87.51
56807;BME280;42687;42.524;12.052;2022-08-21T00:21:25;96461.13;;;19.38;87.86
56807;BME280;42687;42.524;12.052;2022-08-21T00:23:51;96433.91;;;19.16;86.47
56807;BME280;42687;42.524;12.052;2022-08-21T00:26:17;96459.91;;;19.32;87.14
56807;BME280;42687;42.524;12.052;2022-08-21T00:28:42;96450.81;;;19.25;85.38
56807;BME280;42687;42.524;12.052;2022-08-21T00:31:10;96442.28;;;19.22;78.67
56807;BME280;42687;42.524;12.052;2022-08-21T00:33:36;96459.69;;;19.26;86.84
56807;BME280;42687;42.524;12.052;2022-08-21T00:36:02;96452.28;;;19.20;85.33
56807;BME280;42687;42.524;12.052;2022-08-21T00:38:28;96459.56;;;19.17;86.16
56807;BME280;42687;42.524;12.052;2022-08-21T00:40:55;96460.19;;;19.11;82.85
56807;BME280;42687;42.524;12.052;2022-08-21T00:43:22;96449.28;;;19.05;84.00
56807;BME280;42687;42.524;12.052;2022-08-21T00:45:48;96456.88;;;18.99;83.44
56807;BME280;42687;42.524;12.052;2022-08-21T00:48:14;96445.84;;;18.94;90.00
56807;BME280;42687;42.524;12.052;2022-08-21T00:50:43;96448.09;;;18.89;93.00
56807;BME280;42687;42.524;12.052;2022-08-21T00:53:09;96460.16;;;18.83;94.33
56807;BME280;42687;42.524;12.052;2022-08-21T00:55:36;96444.38;;;18.72;95.16
56807;BME280;42687;42.524;12.052;2022-08-21T00:58:03;96452.13;;;18.65;97.02
56807;BME280;42687;42.524;12.052;2022-08-21T01:00:34;96450.34;;;18.56;96.83
56807;BME280;42687;42.524;12.052;2022-08-21T01:03:01;96446.38;;;18.60;96.47
56807;BME280;42687;42.524;12.052;2022-08-21T01:05:27;96444.94;;;18.66;94.79
56807;BME280;42687;42.524;12.052;2022-08-21T01:07:53;96442.69;;;18.71;93.54
56807;BME280;42687;42.524;12.052;2022-08-21T01:10:21;96448.16;;;18.70;92.12
56807;BME280;42687;42.524;12.052;2022-08-21T01:12:48;96441.88;;;18.71;92.41
56807;BME280;42687;42.524;12.052;2022-08-21T01:15:15;96442.84;;;18.70;92.28
56807;BME280;42687;42.524;12.052;2022-08-21T01:17:42;96443.31;;;18.65;92.99
56807;BME280;42687;42.524;12.052;2022-08-21T01:20:08;96438.97;;;18.64;91.59
56807;BME280;42687;42.524;12.052;2022-08-21T01:22:34;96435.88;;;18.59;92.38
56807;BME280;42687;42.524;12.052;2022-08-21T01:25:01;96441.38;;;18.57;92.71
56807;BME280;42687;42.524;12.052;2022-08-21T01:27:26;96438.56;;;18.59;91.91
56807;BME280;42687;42.524;12.052;2022-08-21T01:29:56;96442.34;;;18.56;90.98
56807;BME280;42687;42.524;12.052;2022-08-21T01:32:22;96434.94;;;18.50;87.45
56807;BME280;42687;42.524;12.052;2022-08-21T01:34:49;96433.28;;;18.49;90.64
56807;BME280;42687;42.524;12.052;2022-08-21T01:37:15;96437.22;;;18.45;92.38
56807;BME280;42687;42.524;12.052;2022-08-21T01:39:41;96432.88;;;18.44;93.96
56807;BME280;42687;42.524;12.052;2022-08-21T01:42:06;96438.47;;;18.41;95.67
56807;BME280;42687;42.524;12.052;2022-08-21T01:44:32;96430.38;;;18.42;95.71
56807;BME280;42687;42.524;12.052;2022-08-21T01:46:59;96433.97;;;18.51;92.62
56807;BME280;42687;42.524;12.052;2022-08-21T01:49:25;96361.97;;;18.15;81.67
56807;BME280;42687;42.524;12.052;2022-08-21T01:51:51;96426.47;;;18.64;78.42
56807;BME280;42687;42.524;12.052;2022-08-21T01:54:17;96430.22;;;18.72;84.40
56807;BME280;42687;42.524;12.052;2022-08-21T01:56:45;96423.53;;;18.67;89.11
56807;BME280;42687;42.524;12.052;2022-08-21T01:59:10;96418.22;;;18.58;92.07
56807;BME280;42687;42.524;12.052;2022-08-21T02:01:36;96418.13;;;18.49;94.56
56807;BME280;42687;42.524;12.052;2022-08-21T02:04:02;96416.75;;;18.45;95.94
56807;BME280;42687;42.524;12.052;2022-08-21T02:06:28;96415.22;;;18.43;96.58
56807;BME280;42687;42.524;12.052;2022-08-21T02:08:53;96417.19;;;18.41;96.57
56807;BME280;42687;42.524;12.052;2022-08-21T02:11:19;96412.31;;;18.36;95.19
56807;BME280;42687;42.524;12.052;2022-08-21T02:13:45;96412.63;;;18.33;93.22
56807;BME280;42687;42.524;12.052;2022-08-21T02:16:11;96414.41;;;18.32;95.42
56807;BME280;42687;42.524;12.052;2022-08-21T02:18:37;96409.41;;;18.29;96.66
56807;BME280;42687;42.524;12.052;2022-08-21T02:21:03;96408.84;;;18.26;97.60
56807;BME280;42687;42.524;12.052;2022-08-21T02:23:29;96413.75;;;18.21;97.52
56807;BME280;42687;42.524;12.052;2022-08-21T02:25:56;96418.41;;;18.19;97.35
56807;BME280;42687;42.524;12.052;2022-08-21T02:28:22;96417.03;;;18.14;96.98
56807;BME280;42687;42.524;12.052;2022-08-21T02:30:47;96422.75;;;18.10;97.18
56807;BME280;42687;42.524;12.052;2022-08-21T02:33:14;96414.66;;;18.02;97.68
56807;BME280;42687;42.524;12.052;2022-08-21T02:35:40;96417.44;;;17.90;98.12
56807;BME280;42687;42.524;12.052;2022-08-21T02:38:11;96402.91;;;17.84;97.19
56807;BME280;42687;42.524;12.052;2022-08-21T02:40:38;96409.09;;;17.75;97.00
56807;BME280;42687;42.524;12.052;2022-08-21T02:43:05;96403.66;;;17.67;96.94
56807;BME280;42687;42.524;12.052;2022-08-21T02:45:31;96402.97;;;17.55;96.99
56807;BME280;42687;42.524;12.052;2022-08-21T02:48:01;96391.94;;;17.40;97.71
56807;BME280;42687;42.524;12.052;2022-08-21T02:50:32;96380.59;;;17.09;98.41
56807;BME280;42687;42.524;12.052;2022-08-21T02:52:58;96401.31;;;17.15;99.92
56807;BME280;42687;42.524;12.052;2022-08-21T02:55:24;96400.31;;;17.06;100.00
56807;BME280;42687;42.524;12.052;2022-08-21T02:57:51;96407.56;;;17.04;100.00
56807;BME280;42687;42.524;12.052;2022-08-21T03:00:18;96401.97;;;16.97;100.00
56807;BME280;42687;42.524;12.052;2022-08-21T03:02:46;96407.72;;;16.93;100.00
56807;BME280;42687;42.524;12.052;2022-08-21T03:05:11;96398.69;;;16.84;99.43
56807;BME280;42687;42.524;12.052;2022-08-21T03:07:38;96403.88;;;16.76;99.86
56807;BME280;42687;42.524;12.052;2022-08-21T03:10:05;96406.38;;;16.67;100.00
56807;BME280;42687;42.524;12.052;2022-08-21T03:12:30;96403.56;;;16.59;98.53
56807;BME280;42687;42.524;12.052;2022-08-21T03:14:56;96401.72;;;16.60;96.08
56807;BME280;42687;42.524;12.052;2022-08-21T03:17:23;96403.56;;;16.59;96.51
56807;BME280;42687;42.524;12.052;2022-08-21T03:19:49;96403.66;;;16.58;98.26
56807;BME280;42687;42.524;12.052;2022-08-21T03:22:15;96387.19;;;16.54;100.00
56807;BME280;42687;42.524;12.052;2022-08-21T03:24:40;96390.97;;;16.51;99.87
56807;BME280;42687;42.524;12.052;2022-08-21T03:27:06;96392.66;;;16.53;98.73
56807;BME280;42687;42.524;12.052;2022-08-21T03:29:31;96395.31;;;16.53;99.33
56807;BME280;42687;42.524;12.052;2022-08-21T03:31:57;96393.03;;;16.48;99.82
56807;BME280;42687;42.524;12.052;2022-08-21T03:34:22;96388.53;;;16.39;100.00
56807;BME280;42687;42.524;12.052;2022-08-21T03:36:48;96393.84;;;16.39;100.00
56807;BME280;42687;42.524;12.052;2022-08-21T03:39:14;96393.47;;;16.43;100.00
56807;BME280;42687;42.524;12.052;2022-08-21T03:41:40;96395.03;;;16.56;100.00
56807;BME280;42687;42.524;12.052;2022-08-21T03:44:05;96387.06;;;16.65;99.24
56807;BME280;42687;42.524;12.052;2022-08-21T03:46:31;96382.78;;;16.84;97.86
56807;BME280;42687;42.524;12.052;2022-08-21T03:48:56;96384.50;;;16.95;94.16
56807;BME280;42687;42.524;12.052;2022-08-21T03:51:22;96386.31;;;17.04;94.41
56807;BME280;42687;42.524;12.052;2022-08-21T03:53:48;96376.41;;;17.06;95.80
56807;BME280;42687;42.524;12.052;2022-08-21T03:56:13;96381.31;;;17.21;96.80
56807;BME280;42687;42.524;12.052;2022-08-21T03:58:39;96383.81;;;17.32;97.06
56807;BME280;42687;42.524;12.052;2022-08-21T04:01:05;96380.28;;;17.41;96.55
56807;BME280;42687;42.524;12.052;2022-08-21T04:03:31;96388.28;;;17.51;95.49
56807;BME280;42687;42.524;12.052;2022-08-21T04:05:57;96382.25;;;17.59;94.37
56807;BME280;42687;42.524;12.052;2022-08-21T04:08:23;96383.06;;;17.69;93.11
56807;BME280;42687;42.524;12.052;2022-08-21T04:10:49;96393.41;;;17.82;89.07
56807;BME280;42687;42.524;12.052;2022-08-21T04:13:16;96391.03;;;17.98;89.55
56807;BME280;42687;42.524;12.052;2022-08-21T04:15:42;96397.13;;;18.09;88.44
56807;BME280;42687;42.524;12.052;2022-08-21T04:18:07;96396.41;;;18.16;86.95
56807;BME280;42687;42.524;12.052;2022-08-21T04:20:34;96397.66;;;18.22;84.14
56807;BME280;42687;42.524;12.052;2022-08-21T04:23:00;96391.75;;;18.28;82.05
56807;BME280;42687;42.524;12.052;2022-08-21T04:25:25;96362.41;;;18.10;81.73
56807;BME280;42687;42.524;12.052;2022-08-21T04:27:51;96396.91;;;18.40;82.14
56807;BME280;42687;42.524;12.052;2022-08-21T04:30:17;96392.09;;;18.43;81.76
56807;BME280;42687;42.524;12.052;2022-08-21T04:32:46;96395.31;;;18.47;81.52
56807;BME280;42687;42.524;12.052;2022-08-21T04:35:12;96393.19;;;18.50;81.78
56807;BME280;42687;42.524;12.052;2022-08-21T04:37:38;96403.38;;;18.55;82.06
56807;BME280;42687;42.524;12.052;2022-08-21T04:40:05;96401.59;;;18.56;81.91
56807;BME280;42687;42.524;12.052;2022-08-21T04:42:31;96396.25;;;18.56;81.27
56807;BME280;42687;42.524;12.052;2022-08-21T04:44:57;96400.44;;;18.58;82.21
56807;BME280;42687;42.524;12.052;2022-08-21T04:47:23;96402.81;;;18.61;82.73
56807;BME280;42687;42.524;12.052;2022-08-21T04:49:49;96404.75;;;18.59;83.98
56807;BME280;42687;42.524;12.052;2022-08-21T04:52:15;96407.88;;;18.55;83.38
56807;BME280;42687;42.524;12.052;2022-08-21T04:54:42;96411.69;;;18.52;83.08
56807;BME280;42687;42.524;12.052;2022-08-21T04:57:10;96417.72;;;18.54;82.23
56807;BME280;42687;42.524;12.052;2022-08-21T04:59:43;96420.06;;;18.57;82.87
56807;BME280;42687;42.524;12.052;2022-08-21T05:02:09;96415.28;;;18.61;82.69
56807;BME280;42687;42.524;12.052;2022-08-21T05:04:36;96412.31;;;18.64;83.13
56807;BME280;42687;42.524;12.052;2022-08-21T05:07:04;96426.31;;;18.66;83.08
56807;BME280;42687;42.524;12.052;2022-08-21T05:09:31;96421.13;;;18.64;83.37
56807;BME280;42687;42.524;12.052;2022-08-21T05:11:57;96429.84;;;18.66;82.20
56807;BME280;42687;42.524;12.052;2022-08-21T05:14:23;96358.97;;;18.28;82.64
56807;BME280;42687;42.524;12.052;2022-08-21T05:16:51;96433.16;;;18.68;83.22
56807;BME280;42687;42.524;12.052;2022-08-21T05:19:17;96431.38;;;18.69;83.51
56807;BME280;42687;42.524;12.052;2022-08-21T05:21:43;96429.84;;;18.66;83.81
56807;BME280;42687;42.524;12.052;2022-08-21T05:24:09;96426.78;;;18.61;84.54
56807;BME280;42687;42.524;12.052;2022-08-21T05:26:35;96429.59;;;18.60;84.48
56807;BME280;42687;42.524;12.052;2022-08-21T05:29:02;96432.69;;;18.55;84.59
56807;BME280;42687;42.524;12.052;2022-08-21T05:31:27;96437.56;;;18.60;85.67
56807;BME280;42687;42.524;12.052;2022-08-21T05:33:53;96429.13;;;18.64;86.61
56807;BME280;42687;42.524;12.052;2022-08-21T05:36:18;96436.06;;;18.75;87.03
56807;BME280;42687;42.524;12.052;2022-08-21T05:38:44;96430.88;;;18.83;83.92
56807;BME280;42687;42.524;12.052;2022-08-21T05:41:09;96425.06;;;18.88;84.69
56807;BME280;42687;42.524;12.052;2022-08-21T05:43:35;96431.13;;;18.90;80.92
56807;BME280;42687;42.524;12.052;2022-08-21T05:46:05;96434.03;;;18.97;82.89
56807;BME280;42687;42.524;12.052;2022-08-21T05:48:31;96429.63;;;19.06;84.66
56807;BME280;42687;42.524;12.052;2022-08-21T05:50:57;96428.88;;;19.13;86.80
56807;BME280;42687;42.524;12.052;2022-08-21T05:53:23;96427.31;;;19.21;86.05
56807;BME280;42687;42.524;12.052;2022-08-21T05:55:49;96418.22;;;19.31;86.15
56807;BME280;42687;42.524;12.052;2022-08-21T05:58:17;96421.66;;;19.42;86.02
56807;BME280;42687;42.524;12.052;2022-08-21T06:00:43;96414.13;;;19.55;83.03
56807;BME280;42687;42.524;12.052;2022-08-21T06:03:15;96414.38;;;19.70;83.61
56807;BME280;42687;42.524;12.052;2022-08-21T06:05:42;96421.91;;;19.93;82.17
56807;BME280;42687;42.524;12.052;2022-08-21T06:08:08;96413.03;;;20.45;79.20
56807;BME280;42687;42.524;12.052;2022-08-21T06:10:33;96408.47;;;21.14;73.94
56807;BME280;42687;42.524;12.052;2022-08-21T06:12:59;96413.53;;;22.00;70.79
56807;BME280;42687;42.524;12.052;2022-08-21T06:15:24;96404.44;;;22.82;69.41
56807;BME280;42687;42.524;12.052;2022-08-21T06:17:51;96398.94;;;23.61;69.13
56807;BME280;42687;42.524;12.052;2022-08-21T06:20:17;96392.81;;;24.29;69.19
56807;BME280;42687;42.524;12.052;2022-08-21T06:22:42;96381.59;;;24.70;69.99
56807;BME280;42687;42.524;12.052;2022-08-21T06:25:08;96395.72;;;25.30;70.16
56807;BME280;42687;42.524;12.052;2022-08-21T06:27:34;96399.91;;;25.76;69.98
56807;BME280;42687;42.524;12.052;2022-08-21T06:29:59;96394.84;;;26.17;69.67
56807;BME280;42687;42.524;12.052;2022-08-21T06:32:25;96395.47;;;26.47;69.46
56807;BME280;42687;42.524;12.052;2022-08-21T06:34:51;96398.56;;;26.79;69.15
56807;BME280;42687;42.524;12.052;2022-08-21T06:37:16;96399.91;;;27.03;68.94
56807;BME280;42687;42.524;12.052;2022-08-21T06:39:42;96406.19;;;27.24;68.49
56807;BME280;42687;42.524;12.052;2022-08-21T06:42:12;96403.19;;;27.54;68.27
56807;BME280;42687;42.524;12.052;2022-08-21T06:44:38;96399.06;;;27.85;67.45
56807;BME280;42687;42.524;12.052;2022-08-21T06:47:03;96403.84;;;28.16;66.17
56807;BME280;42687;42.524;12.052;2022-08-21T06:49:29;96405.25;;;28.45;65.09
56807;BME280;42687;42.524;12.052;2022-08-21T06:51:54;96416.00;;;28.79;64.22
56807;BME280;42687;42.524;12.052;2022-08-21T06:54:20;96418.84;;;29.04;63.54
56807;BME280;42687;42.524;12.052;2022-08-21T06:56:45;96360.19;;;28.91;62.59
56807;BME280;42687;42.524;12.052;2022-08-21T06:59:11;96414.44;;;29.55;61.55
56807;BME280;42687;42.524;12.052;2022-08-21T07:01:37;96408.19;;;29.87;60.41
56807;BME280;42687;42.524;12.052;2022-08-21T07:04:02;96417.03;;;30.26;59.29
56807;BME280;42687;42.524;12.052;2022-08-21T07:06:28;96403.94;;;30.48;58.58
56807;BME280;42687;42.524;12.052;2022-08-21T07:08:53;96409.13;;;30.50;58.72
56807;BME280;42687;42.524;12.052;2022-08-21T07:11:21;96406.44;;;30.43;59.08
56807;BME280;42687;42.524;12.052;2022-08-21T07:13:47;96413.66;;;30.56;58.91
56807;BME280;42687;42.524;12.052;2022-08-21T07:16:13;96415.84;;;30.84;58.77
56807;BME280;42687;42.524;12.052;2022-08-21T07:18:39;96421.81;;;31.12;58.52
56807;BME280;42687;42.524;12.052;2022-08-21T07:21:05;96373.16;;;31.10;58.44
56807;BME280;42687;42.524;12.052;2022-08-21T07:23:38;96421.59;;;31.62;58.21
56807;BME280;42687;42.524;12.052;2022-08-21T07:26:05;96424.72;;;31.89;58.06
56807;BME280;42687;42.524;12.052;2022-08-21T07:28:31;96421.31;;;32.06;57.83
56807;BME280;42687;42.524;12.052;2022-08-21T07:30:57;96422.06;;;32.25;57.51
56807;BME280;42687;42.524;12.052;2022-08-21T07:33:23;96424.53;;;32.26;57.55
56807;BME280;42687;42.524;12.052;2022-08-21T07:35:49;96428.75;;;32.10;58.21
56807;BME280;42687;42.524;12.052;2022-08-21T07:38:15;96423.59;;;32.21;57.95
56807;BME280;42687;42.524;12.052;2022-08-21T07:40:40;96424.66;;;32.32;57.24
56807;BME280;42687;42.524;12.052;2022-08-21T07:43:06;96425.41;;;32.39;57.17
56807;BME280;42687;42.524;12.052;2022-08-21T07:45:32;96425.72;;;32.54;56.59
56807;BME280;42687;42.524;12.052;2022-08-21T07:47:57;96416.75;;;32.78;56.10
56807;BME280;42687;42.524;12.052;2022-08-21T07:50:23;96421.00;;;32.85;55.54
56807;BME280;42687;42.524;12.052;2022-08-21T07:52:49;96436.88;;;32.76;55.78
56807;BME280;42687;42.524;12.052;2022-08-21T07:55:17;96423.59;;;32.68;55.57
56807;BME280;42687;42.524;12.052;2022-08-21T07:57:43;96416.13;;;32.64;55.90
56807;BME280;42687;42.524;12.052;2022-08-21T08:00:12;96422.66;;;32.74;55.96
56807;BME280;42687;42.524;12.052;2022-08-21T08:02:38;96426.03;;;33.05;55.26
56807;BME280;42687;42.524;12.052;2022-08-21T08:05:04;96426.06;;;33.34;54.29
56807;BME280;42687;42.524;12.052;2022-08-21T08:07:30;96417.63;;;33.48;53.61
56807;BME280;42687;42.524;12.052;2022-08-21T08:09:57;96415.25;;;33.68;53.17
56807;BME280;42687;42.524;12.052;2022-08-21T08:12:23;96416.81;;;33.93;52.20
56807;BME280;42687;42.524;12.052;2022-08-21T08:14:55;96418.16;;;34.07;51.84
56807;BME280;42687;42.524;12.052;2022-08-21T08:17:20;96421.44;;;34.09;50.82
56807;BME280;42687;42.524;12.052;2022-08-21T08:19:48;96412.34;;;33.87;51.16
56807;BME280;42687;42.524;12.052;2022-08-21T08:22:18;96405.44;;;33.67;51.00
56807;BME280;42687;42.524;12.052;2022-08-21T08:24:47;96413.41;;;33.40;50.99
56807;BME280;42687;42.524;12.052;2022-08-21T08:27:14;96406.19;;;33.22;50.97
56807;BME280;42687;42.524;12.052;2022-08-21T08:29:39;96403.97;;;33.19;50.89
56807;BME280;42687;42.524;12.052;2022-08-21T08:32:05;96412.56;;;33.39;50.25
56807;BME280;42687;42.524;12.052;2022-08-21T08:34:32;96407.31;;;33.50;49.67
56807;BME280;42687;42.524;12.052;2022-08-21T08:36:58;96405.28;;;33.74;48.93
56807;BME280;42687;42.524;12.052;2022-08-21T08:39:24;96397.84;;;33.69;47.78
56807;BME280;42687;42.524;12.052;2022-08-21T08:41:49;96402.94;;;33.66;47.81
56807;BME280;42687;42.524;12.052;2022-08-21T08:44:19;96405.69;;;33.66;47.69
56807;BME280;42687;42.524;12.052;2022-08-21T08:46:46;96338.00;;;33.17;47.47
56807;BME280;42687;42.524;12.052;2022-08-21T08:49:23;96390.66;;;33.22;47.98
56807;BME280;42687;42.524;12.052;2022-08-21T08:54:28;96393.94;;;33.07;47.54
56807;BME280;42687;42.524;12.052;2022-08-21T08:56:59;96389.50;;;33.18;47.21
56807;BME280;42687;42.524;12.052;2022-08-21T08:59:27;96392.22;;;33.30;46.92
56807;BME280;42687;42.524;12.052;2022-08-21T09:01:56;96392.06;;;31.77;38.61
56807;BME280;42687;42.524;12.052;2022-08-21T09:04:23;96391.63;;;31.92;39.87
56807;BME280;42687;42.524;12.052;2022-08-21T09:07:11;96392.38;;;32.83;40.01
56807;BME280;42687;42.524;12.052;2022-08-21T09:12:31;96390.34;;;33.31;40.26
56807;BME280;42687;42.524;12.052;2022-08-21T09:20:03;96392.66;;;33.39;41.38
56807;BME280;42687;42.524;12.052;2022-08-21T09:25:11;96386.88;;;33.23;41.63
56807;BME280;42687;42.524;12.052;2022-08-21T09:27:37;96385.78;;;32.96;42.39
56807;BME280;42687;42.524;12.052;2022-08-21T09:30:05;96390.22;;;32.73;42.80
56807;BME280;42687;42.524;12.052;2022-08-21T09:32:31;96386.59;;;32.32;43.58
56807;BME280;42687;42.524;12.052;2022-08-21T09:34:59;96393.53;;;32.04;43.67
56807;BME280;42687;42.524;12.052;2022-08-21T09:37:25;96390.81;;;32.04;43.55
56807;BME280;42687;42.524;12.052;2022-08-21T09:39:51;96387.38;;;31.97;43.47
56807;BME280;42687;42.524;12.052;2022-08-21T09:42:28;96387.06;;;32.17;42.79
56807;BME280;42687;42.524;12.052;2022-08-21T09:45:10;96379.72;;;32.17;42.70
56807;BME280;42687;42.524;12.052;2022-08-21T09:47:36;96376.16;;;32.05;43.15
56807;BME280;42687;42.524;12.052;2022-08-21T09:50:19;96383.47;;;31.92;43.22
56807;BME280;42687;42.524;12.052;2022-08-21T09:52:55;96373.25;;;31.64;43.72
56807;BME280;42687;42.524;12.052;2022-08-21T09:58:10;96372.63;;;31.20;44.63
56807;BME280;42687;42.524;12.052;2022-08-21T10:00:36;96369.19;;;31.55;44.07
56807;BME280;42687;42.524;12.052;2022-08-21T10:06:03;96365.97;;;32.00;43.73
56807;BME280;42687;42.524;12.052;2022-08-21T10:08:34;96364.78;;;32.08;43.51
56807;BME280;42687;42.524;12.052;2022-08-21T10:13:36;96365.88;;;31.53;43.93
56807;BME280;42687;42.524;12.052;2022-08-21T10:16:25;96360.22;;;31.24;43.82
56807;BME280;42687;42.524;12.052;2022-08-21T10:19:02;96364.47;;;31.01;43.65
56807;BME280;42687;42.524;12.052;2022-08-21T10:24:00;96366.50;;;30.32;44.51
56807;BME280;42687;42.524;12.052;2022-08-21T10:26:36;96361.38;;;30.23;44.91
56807;BME280;42687;42.524;12.052;2022-08-21T10:39:40;96350.56;;;30.79;43.65
56807;BME280;42687;42.524;12.052;2022-08-21T10:44:52;96349.66;;;30.67;44.07
56807;BME280;42687;42.524;12.052;2022-08-21T10:49:56;96347.00;;;30.41;44.02
56807;BME280;42687;42.524;12.052;2022-08-21T10:54:59;96340.56;;;30.91;43.00
56807;BME280;42687;42.524;12.052;2022-08-21T11:00:02;96322.81;;;32.04;41.40
56807;BME280;42687;42.524;12.052;2022-08-21T11:02:35;96328.38;;;32.45;41.21
56807;BME280;42687;42.524;12.052;2022-08-21T11:05:04;96282.28;;;32.26;41.06
56807;BME280;42687;42.524;12.052;2022-08-21T11:07:39;96322.09;;;32.44;41.62
56807;BME280;42687;42.524;12.052;2022-08-21T11:12:44;96318.59;;;32.20;41.78
56807;BME280;42687;42.524;12.052;2022-08-21T11:15:32;96314.91;;;32.38;41.45
56807;BME280;42687;42.524;12.052;2022-08-21T11:18:02;96321.13;;;32.74;41.08
56807;BME280;42687;42.524;12.052;2022-08-21T11:20:33;96306.97;;;33.18;40.43
56807;BME280;42687;42.524;12.052;2022-08-21T11:23:11;96306.00;;;33.24;41.02
56807;BME280;42687;42.524;12.052;2022-08-21T11:25:44;96308.59;;;33.02;41.27
56807;BME280;42687;42.524;12.052;2022-08-21T11:28:21;96303.50;;;33.05;41.52
56807;BME280;42687;42.524;12.052;2022-08-21T11:33:28;96305.41;;;33.51;41.26
56807;BME280;42687;42.524;12.052;2022-08-21T11:36:00;96304.06;;;33.53;41.49
56807;BME280;42687;42.524;12.052;2022-08-21T11:38:42;96310.50;;;33.47;41.33
56807;BME280;42687;42.524;12.052;2022-08-21T11:43:42;96298.59;;;32.79;42.58
56807;BME280;42687;42.524;12.052;2022-08-21T11:51:20;96293.97;;;32.38;43.14
56807;BME280;42687;42.524;12.052;2022-08-21T11:53:50;96265.22;;;32.31;42.79
56807;BME280;42687;42.524;12.052;2022-08-21T11:56:19;96231.19;;;32.16;42.70
56807;BME280;42687;42.524;12.052;2022-08-21T11:58:49;96285.69;;;32.33;42.87
56807;BME280;42687;42.524;12.052;2022-08-21T12:01:21;96234.78;;;31.69;43.67
56807;BME280;42687;42.524;12.052;2022-08-21T12:03:58;96274.13;;;31.79;43.80
56807;BME280;42687;42.524;12.052;2022-08-21T12:07:08;96275.53;;;31.69;43.91
56807;BME280;42687;42.524;12.052;2022-08-21T12:12:03;96285.94;;;31.72;43.21
56807;BME280;42687;42.524;12.052;2022-08-21T12:14:43;96276.25;;;31.76;43.33
56807;BME280;42687;42.524;12.052;2022-08-21T12:17:17;96278.25;;;31.93;43.13
56807;BME280;42687;42.524;12.052;2022-08-21T12:19:43;96279.06;;;32.05;43.22
56807;BME280;42687;42.524;12.052;2022-08-21T12:22:10;96261.34;;;32.03;43.12
56807;BME280;42687;42.524;12.052;2022-08-21T12:24:48;96264.25;;;32.49;42.57
56807;BME280;42687;42.524;12.052;2022-08-21T12:29:47;96255.31;;;32.65;42.75
56807;BME280;42687;42.524;12.052;2022-08-21T12:39:50;96254.53;;;31.65;43.83
56807;BME280;42687;42.524;12.052;2022-08-21T12:42:19;96244.78;;;31.57;43.97
56807;BME280;42687;42.524;12.052;2022-08-21T12:44:48;96243.38;;;31.54;43.94
56807;BME280;42687;42.524;12.052;2022-08-21T12:47:27;96192.81;;;31.41;43.88
56807;BME280;42687;42.524;12.052;2022-08-21T12:50:05;96235.81;;;31.80;43.35
56807;BME280;42687;42.524;12.052;2022-08-21T12:52:38;96235.31;;;32.07;43.06
56807;BME280;42687;42.524;12.052;2022-08-21T12:55:15;96238.25;;;32.41;42.74
56807;BME280;42687;42.524;12.052;2022-08-21T12:57:42;96235.53;;;32.70;42.22
56807;BME280;42687;42.524;12.052;2022-08-21T13:00:12;96232.41;;;32.90;42.20
56807;BME280;42687;42.524;12.052;2022-08-21T13:02:42;96237.66;;;32.80;42.45
56807;BME280;42687;42.524;12.052;2022-08-21T13:05:11;96225.41;;;32.53;42.75
56807;BME280;42687;42.524;12.052;2022-08-21T13:07:42;96220.09;;;32.18;43.36
56807;BME280;42687;42.524;12.052;2022-08-21T13:10:20;96218.06;;;32.01;43.55
56807;BME280;42687;42.524;12.052;2022-08-21T13:12:47;96216.28;;;32.19;42.83
56807;BME280;42687;42.524;12.052;2022-08-21T13:15:21;96217.16;;;32.48;42.56
56807;BME280;42687;42.524;12.052;2022-08-21T13:17:48;96215.25;;;33.06;41.87
56807;BME280;42687;42.524;12.052;2022-08-21T13:20:27;96207.25;;;33.68;40.65
56807;BME280;42687;42.524;12.052;2022-08-21T13:22:53;96212.16;;;34.27;39.45
56807;BME280;42687;42.524;12.052;2022-08-21T13:25:19;96202.78;;;34.62;39.46
56807;BME280;42687;42.524;12.052;2022-08-21T13:27:58;96198.56;;;35.04;39.12
56807;BME280;42687;42.524;12.052;2022-08-21T13:30:24;96196.28;;;35.23;38.92
56807;BME280;42687;42.524;12.052;2022-08-21T13:32:51;96201.38;;;35.14;39.56
56807;BME280;42687;42.524;12.052;2022-08-21T13:35:18;96197.09;;;34.91;38.82
56807;BME280;42687;42.524;12.052;2022-08-21T13:37:44;96205.72;;;34.55;40.51
56807;BME280;42687;42.524;12.052;2022-08-21T13:40:12;96197.19;;;34.07;40.90
56807;BME280;42687;42.524;12.052;2022-08-21T13:42:39;96193.25;;;33.42;42.18
56807;BME280;42687;42.524;12.052;2022-08-21T13:45:11;96189.72;;;32.96;42.68
56807;BME280;42687;42.524;12.052;2022-08-21T13:47:40;96194.50;;;32.59;43.08
56807;BME280;42687;42.524;12.052;2022-08-21T13:50:06;96188.50;;;32.57;42.98
56807;BME280;42687;42.524;12.052;2022-08-21T13:52:32;96194.28;;;32.90;42.43
56807;BME280;42687;42.524;12.052;2022-08-21T13:55:00;96190.72;;;33.06;42.29
56807;BME280;42687;42.524;12.052;2022-08-21T13:57:33;96191.22;;;33.03;41.90
56807;BME280;42687;42.524;12.052;2022-08-21T14:00:43;96194.00;;;32.63;42.41
56807;BME280;42687;42.524;12.052;2022-08-21T14:02:59;96189.94;;;32.07;42.91
56807;BME280;42687;42.524;12.052;2022-08-21T14:05:26;96179.22;;;31.77;43.43